SWA1346 KMDW-KDTW
Flight info
| Callsign | SWA1346 |
|---|---|
| Flight time | 0h 38m |
| Altitude | 25000 |
| Route | LEWKE GIJ HOSSA VCTRZ2 |
| Aircraft | B738/M-SADE2E3GIJ4RWZ/LB1D1 |
Departure
| Time | 2026-05-04 13:56 |
|---|---|
| Airport | Chicago Midway International Airport (KMDW) |
Arrival
| Time | 2026-05-04 14:34 |
|---|---|
| Airport | Detroit Metropolitan Wayne County Airport (KDTW) |
| Time | Latitude | Longitude | Altitude | Speed | Heading |
|---|---|---|---|---|---|
| 2026-05-04 13:15 | 41.78443 | -87.74335 | 631 ft | 0 kts | 5° |
| 2026-05-04 13:48 | 41.78419 | -87.74335 | 634 ft | 4 kts | 345° |
| 2026-05-04 13:48 | 41.78400 | -87.74321 | 634 ft | 4 kts | 282° |
| 2026-05-04 13:48 | 41.78402 | -87.74305 | 628 ft | 1 kts | 220° |
| 2026-05-04 13:48 | 41.78405 | -87.74302 | 633 ft | 0 kts | 220° |
| 2026-05-04 13:51 | 41.78399 | -87.74309 | 632 ft | 3 kts | 220° |
| 2026-05-04 13:51 | 41.78366 | -87.74343 | 628 ft | 9 kts | 217° |
| 2026-05-04 13:52 | 41.78398 | -87.74493 | 628 ft | 10 kts | 314° |
| 2026-05-04 13:52 | 41.78446 | -87.74557 | 628 ft | 10 kts | 316° |
| 2026-05-04 13:52 | 41.78492 | -87.74621 | 635 ft | 10 kts | 312° |
| 2026-05-04 13:53 | 41.78547 | -87.74700 | 628 ft | 14 kts | 313° |
| 2026-05-04 13:53 | 41.78630 | -87.74784 | 633 ft | 16 kts | 349° |
| 2026-05-04 13:53 | 41.78730 | -87.74746 | 628 ft | 15 kts | 43° |
| 2026-05-04 13:54 | 41.78877 | -87.74558 | 628 ft | 14 kts | 44° |
| 2026-05-04 13:54 | 41.78947 | -87.74470 | 629 ft | 13 kts | 43° |
| 2026-05-04 13:54 | 41.79078 | -87.74304 | 628 ft | 12 kts | 43° |
| 2026-05-04 13:55 | 41.79135 | -87.74260 | 630 ft | 10 kts | 360° |
| 2026-05-04 13:55 | 41.79154 | -87.74364 | 630 ft | 0 kts | 223° |
| 2026-05-04 13:56 | 41.79040 | -87.74508 | 637 ft | 68 kts | 223° |
| 2026-05-04 13:56 | 41.78458 | -87.75251 | 670 ft | 156 kts | 222° |
| 2026-05-04 13:56 | 41.76837 | -87.77298 | 2601 ft | 172 kts | 225° |
| 2026-05-04 13:57 | 41.75929 | -87.78462 | 3076 ft | 189 kts | 226° |
| 2026-05-04 13:57 | 41.74858 | -87.79735 | 3045 ft | 227 kts | 213° |
| 2026-05-04 13:58 | 41.70344 | -87.77479 | 3105 ft | 275 kts | 120° |
| 2026-05-04 13:58 | 41.69950 | -87.72305 | 4707 ft | 287 kts | 85° |
| 2026-05-04 13:58 | 41.70229 | -87.69622 | 5502 ft | 294 kts | 83° |
| 2026-05-04 13:59 | 41.70545 | -87.66889 | 6419 ft | 298 kts | 83° |
| 2026-05-04 13:59 | 41.70855 | -87.64150 | 7393 ft | 304 kts | 82° |
| 2026-05-04 13:59 | 41.71456 | -87.58422 | 9419 ft | 317 kts | 82° |
| 2026-05-04 14:00 | 41.71747 | -87.55464 | 10335 ft | 324 kts | 82° |
| 2026-05-04 14:00 | 41.72362 | -87.49010 | 11020 ft | 378 kts | 82° |
| 2026-05-04 14:00 | 41.72692 | -87.45438 | 11651 ft | 391 kts | 82° |
| 2026-05-04 14:01 | 41.73024 | -87.41811 | 12568 ft | 395 kts | 82° |
| 2026-05-04 14:01 | 41.73358 | -87.38138 | 13541 ft | 399 kts | 82° |
| 2026-05-04 14:01 | 41.74032 | -87.30671 | 15165 ft | 408 kts | 82° |
| 2026-05-04 14:02 | 41.74372 | -87.26883 | 15996 ft | 412 kts | 82° |
| 2026-05-04 14:02 | 41.74716 | -87.23045 | 16788 ft | 417 kts | 82° |
| 2026-05-04 14:02 | 41.75062 | -87.19162 | 17542 ft | 423 kts | 83° |
| 2026-05-04 14:02 | 41.75412 | -87.15234 | 18268 ft | 428 kts | 83° |
| 2026-05-04 14:03 | 41.75764 | -87.11257 | 18956 ft | 431 kts | 83° |
| 2026-05-04 14:03 | 41.76116 | -87.07257 | 19664 ft | 434 kts | 83° |
| 2026-05-04 14:03 | 41.76327 | -87.03201 | 20331 ft | 438 kts | 88° |
| 2026-05-04 14:03 | 41.76393 | -86.99107 | 20994 ft | 442 kts | 89° |
| 2026-05-04 14:04 | 41.76430 | -86.90790 | 22259 ft | 450 kts | 89° |
| 2026-05-04 14:04 | 41.76451 | -86.86576 | 22878 ft | 454 kts | 89° |
| 2026-05-04 14:04 | 41.76481 | -86.82331 | 23461 ft | 458 kts | 89° |
| 2026-05-04 14:05 | 41.76560 | -86.73743 | 24479 ft | 464 kts | 89° |
| 2026-05-04 14:05 | 41.76603 | -86.69395 | 24765 ft | 469 kts | 89° |
| 2026-05-04 14:05 | 41.76645 | -86.64986 | 24763 ft | 478 kts | 89° |
| 2026-05-04 14:06 | 41.76686 | -86.60518 | 24778 ft | 481 kts | 89° |
| 2026-05-04 14:06 | 41.76725 | -86.56059 | 24777 ft | 478 kts | 89° |
| 2026-05-04 14:06 | 41.76760 | -86.51652 | 24776 ft | 479 kts | 89° |
| 2026-05-04 14:06 | 41.76794 | -86.47189 | 24778 ft | 479 kts | 89° |
| 2026-05-04 14:07 | 41.76828 | -86.42712 | 24773 ft | 480 kts | 89° |
| 2026-05-04 14:07 | 41.76859 | -86.38240 | 24776 ft | 480 kts | 89° |
| 2026-05-04 14:07 | 41.76905 | -86.33766 | 24777 ft | 480 kts | 87° |
| 2026-05-04 14:07 | 41.77275 | -86.29324 | 24768 ft | 479 kts | 77° |
| 2026-05-04 14:08 | 41.78085 | -86.25005 | 24789 ft | 477 kts | 73° |
| 2026-05-04 14:08 | 41.78962 | -86.20711 | 24768 ft | 478 kts | 73° |
| 2026-05-04 14:08 | 41.79836 | -86.16470 | 24766 ft | 478 kts | 73° |
| 2026-05-04 14:08 | 41.80711 | -86.12175 | 24769 ft | 478 kts | 73° |
| 2026-05-04 14:09 | 41.82422 | -86.03556 | 24767 ft | 478 kts | 73° |
| 2026-05-04 14:09 | 41.83262 | -85.99243 | 24768 ft | 478 kts | 73° |
| 2026-05-04 14:10 | 41.84927 | -85.90616 | 24763 ft | 478 kts | 74° |
| 2026-05-04 14:10 | 41.85757 | -85.86294 | 24769 ft | 478 kts | 74° |
| 2026-05-04 14:10 | 41.86586 | -85.81977 | 24755 ft | 478 kts | 74° |
| 2026-05-04 14:10 | 41.87414 | -85.77651 | 24752 ft | 478 kts | 74° |
| 2026-05-04 14:11 | 41.88241 | -85.73330 | 24759 ft | 478 kts | 74° |
| 2026-05-04 14:11 | 41.89888 | -85.64692 | 24757 ft | 478 kts | 74° |
| 2026-05-04 14:11 | 41.90699 | -85.60422 | 24769 ft | 478 kts | 74° |
| 2026-05-04 14:12 | 41.91518 | -85.56106 | 24765 ft | 478 kts | 74° |
| 2026-05-04 14:12 | 41.92337 | -85.51777 | 24764 ft | 479 kts | 74° |
| 2026-05-04 14:12 | 41.93972 | -85.43106 | 24759 ft | 479 kts | 74° |
| 2026-05-04 14:13 | 41.94789 | -85.38758 | 24775 ft | 479 kts | 74° |
| 2026-05-04 14:13 | 41.95594 | -85.34458 | 24723 ft | 468 kts | 74° |
| 2026-05-04 14:13 | 41.96379 | -85.30256 | 24307 ft | 458 kts | 74° |
| 2026-05-04 14:13 | 41.97148 | -85.26132 | 23826 ft | 452 kts | 74° |
| 2026-05-04 14:14 | 41.97906 | -85.22064 | 23332 ft | 446 kts | 74° |
| 2026-05-04 14:14 | 41.99398 | -85.14042 | 22218 ft | 438 kts | 74° |
| 2026-05-04 14:14 | 42.00128 | -85.10103 | 21728 ft | 442 kts | 74° |
| 2026-05-04 14:15 | 42.00586 | -85.01957 | 20723 ft | 434 kts | 95° |
| 2026-05-04 14:15 | 42.00059 | -84.93922 | 19711 ft | 427 kts | 94° |
| 2026-05-04 14:16 | 41.99625 | -84.85975 | 18988 ft | 420 kts | 94° |
| 2026-05-04 14:16 | 41.99427 | -84.82110 | 18804 ft | 408 kts | 94° |
| 2026-05-04 14:17 | 41.99042 | -84.74675 | 18519 ft | 394 kts | 94° |
| 2026-05-04 14:17 | 41.98848 | -84.70953 | 18397 ft | 403 kts | 94° |
| 2026-05-04 14:17 | 41.98454 | -84.63398 | 18104 ft | 404 kts | 94° |
| 2026-05-04 14:18 | 41.98259 | -84.59689 | 17940 ft | 402 kts | 94° |
| 2026-05-04 14:18 | 41.97862 | -84.52266 | 17824 ft | 395 kts | 94° |
| 2026-05-04 14:19 | 41.97456 | -84.44885 | 17569 ft | 397 kts | 94° |
| 2026-05-04 14:19 | 41.97251 | -84.41167 | 17421 ft | 399 kts | 94° |
| 2026-05-04 14:19 | 41.97046 | -84.37453 | 17277 ft | 399 kts | 94° |
| 2026-05-04 14:19 | 41.96838 | -84.33729 | 17145 ft | 399 kts | 94° |
| 2026-05-04 14:20 | 41.96637 | -84.30012 | 16996 ft | 398 kts | 92° |
| 2026-05-04 14:20 | 41.96758 | -84.26298 | 16704 ft | 396 kts | 81° |
| 2026-05-04 14:20 | 41.97153 | -84.22666 | 16422 ft | 389 kts | 79° |
| 2026-05-04 14:21 | 41.97941 | -84.15588 | 15876 ft | 383 kts | 81° |
| 2026-05-04 14:21 | 41.98287 | -84.12048 | 15605 ft | 382 kts | 81° |
| 2026-05-04 14:21 | 41.98616 | -84.08518 | 15333 ft | 380 kts | 82° |
| 2026-05-04 14:21 | 41.99038 | -84.05018 | 15055 ft | 378 kts | 74° |
| 2026-05-04 14:22 | 41.99810 | -84.01653 | 14792 ft | 375 kts | 69° |
| 2026-05-04 14:22 | 42.00659 | -83.98346 | 14526 ft | 373 kts | 69° |
| 2026-05-04 14:22 | 42.01472 | -83.95042 | 14259 ft | 372 kts | 70° |
| 2026-05-04 14:22 | 42.02256 | -83.91731 | 13986 ft | 370 kts | 70° |
| 2026-05-04 14:23 | 42.05010 | -83.86121 | 13469 ft | 359 kts | 47° |
| 2026-05-04 14:23 | 42.06581 | -83.83509 | 13174 ft | 359 kts | 48° |
| 2026-05-04 14:23 | 42.08143 | -83.80891 | 12894 ft | 358 kts | 48° |
| 2026-05-04 14:24 | 42.09699 | -83.78295 | 12625 ft | 353 kts | 48° |
| 2026-05-04 14:24 | 42.11225 | -83.75751 | 12365 ft | 344 kts | 48° |
| 2026-05-04 14:24 | 42.12696 | -83.73302 | 12124 ft | 337 kts | 48° |
| 2026-05-04 14:24 | 42.14145 | -83.70889 | 12015 ft | 325 kts | 48° |
| 2026-05-04 14:25 | 42.15544 | -83.68558 | 11997 ft | 316 kts | 48° |
| 2026-05-04 14:25 | 42.18342 | -83.63913 | 11076 ft | 324 kts | 48° |
| 2026-05-04 14:25 | 42.19777 | -83.61554 | 10450 ft | 324 kts | 48° |
| 2026-05-04 14:26 | 42.21195 | -83.59235 | 10071 ft | 316 kts | 48° |
| 2026-05-04 14:26 | 42.22570 | -83.56996 | 9773 ft | 305 kts | 48° |
| 2026-05-04 14:26 | 42.24031 | -83.54994 | 9454 ft | 294 kts | 36° |
| 2026-05-04 14:26 | 42.25639 | -83.53328 | 9049 ft | 289 kts | 33° |
| 2026-05-04 14:27 | 42.27249 | -83.51718 | 8593 ft | 287 kts | 33° |
| 2026-05-04 14:27 | 42.28858 | -83.50120 | 8105 ft | 287 kts | 33° |
| 2026-05-04 14:27 | 42.30488 | -83.48513 | 7459 ft | 293 kts | 33° |
| 2026-05-04 14:27 | 42.32154 | -83.46884 | 6819 ft | 298 kts | 33° |
| 2026-05-04 14:28 | 42.33852 | -83.45234 | 6229 ft | 301 kts | 33° |
| 2026-05-04 14:28 | 42.35558 | -83.43587 | 5736 ft | 299 kts | 33° |
| 2026-05-04 14:28 | 42.37253 | -83.41947 | 5215 ft | 298 kts | 35° |
| 2026-05-04 14:28 | 42.38634 | -83.39883 | 4801 ft | 296 kts | 60° |
| 2026-05-04 14:29 | 42.40158 | -83.34930 | 4110 ft | 276 kts | 83° |
| 2026-05-04 14:29 | 42.39085 | -83.30527 | 3320 ft | 233 kts | 143° |
| 2026-05-04 14:30 | 42.37920 | -83.29156 | 3157 ft | 218 kts | 147° |
| 2026-05-04 14:30 | 42.36785 | -83.27881 | 2987 ft | 207 kts | 147° |
| 2026-05-04 14:30 | 42.34413 | -83.26308 | 2647 ft | 182 kts | 178° |
| 2026-05-04 14:31 | 42.33194 | -83.26227 | 2498 ft | 170 kts | 190° |
| 2026-05-04 14:31 | 42.31031 | -83.26829 | 2190 ft | 154 kts | 208° |
| 2026-05-04 14:32 | 42.29447 | -83.27846 | 1944 ft | 151 kts | 211° |
| 2026-05-04 14:32 | 42.28563 | -83.28499 | 1898 ft | 138 kts | 213° |
| 2026-05-04 14:32 | 42.27735 | -83.29128 | 1746 ft | 136 kts | 213° |
| 2026-05-04 14:32 | 42.26923 | -83.29759 | 1686 ft | 135 kts | 212° |
| 2026-05-04 14:33 | 42.26105 | -83.30352 | 1546 ft | 133 kts | 210° |
| 2026-05-04 14:33 | 42.25267 | -83.30951 | 1336 ft | 139 kts | 210° |
| 2026-05-04 14:33 | 42.24417 | -83.31582 | 1195 ft | 140 kts | 209° |
| 2026-05-04 14:33 | 42.23567 | -83.32216 | 1019 ft | 136 kts | 209° |
| 2026-05-04 14:34 | 42.22747 | -83.32826 | 849 ft | 135 kts | 211° |
| 2026-05-04 14:34 | 42.21926 | -83.33436 | 677 ft | 134 kts | 210° |
| 2026-05-04 14:34 | 42.21178 | -83.33987 | 647 ft | 102 kts | 209° |
| 2026-05-04 14:34 | 42.20736 | -83.34317 | 645 ft | 43 kts | 210° |
| 2026-05-04 14:35 | 42.20578 | -83.34543 | 647 ft | 31 kts | 238° |
| 2026-05-04 14:35 | 42.20493 | -83.34725 | 648 ft | 21 kts | 231° |
| 2026-05-04 14:35 | 42.20377 | -83.34832 | 646 ft | 20 kts | 208° |
| 2026-05-04 14:35 | 42.20258 | -83.34921 | 646 ft | 19 kts | 210° |
| 2026-05-04 14:36 | 42.20181 | -83.35023 | 648 ft | 14 kts | 260° |
| 2026-05-04 14:36 | 42.20176 | -83.35155 | 646 ft | 15 kts | 269° |
| 2026-05-04 14:36 | 42.20174 | -83.35300 | 647 ft | 16 kts | 269° |
| 2026-05-04 14:36 | 42.20172 | -83.35447 | 646 ft | 15 kts | 268° |
| 2026-05-04 14:37 | 42.20169 | -83.35590 | 646 ft | 16 kts | 269° |
| 2026-05-04 14:37 | 42.20167 | -83.35734 | 645 ft | 15 kts | 269° |
| 2026-05-04 14:37 | 42.20165 | -83.35872 | 645 ft | 14 kts | 269° |
| 2026-05-04 14:37 | 42.20163 | -83.36005 | 645 ft | 14 kts | 269° |
| 2026-05-04 14:38 | 42.20162 | -83.36132 | 645 ft | 13 kts | 273° |
| 2026-05-04 14:38 | 42.20177 | -83.36266 | 645 ft | 16 kts | 280° |
| 2026-05-04 14:38 | 42.20201 | -83.36431 | 646 ft | 20 kts | 281° |
| 2026-05-04 14:38 | 42.20228 | -83.36627 | 646 ft | 23 kts | 280° |
| 2026-05-04 14:39 | 42.20268 | -83.36780 | 645 ft | 9 kts | 317° |
| 2026-05-04 14:39 | 42.20328 | -83.36777 | 645 ft | 9 kts | 26° |
| 2026-05-04 14:39 | 42.20384 | -83.36736 | 645 ft | 10 kts | 29° |
| 2026-05-04 14:40 | 42.20577 | -83.36596 | 645 ft | 23 kts | 28° |
| 2026-05-04 14:40 | 42.20733 | -83.36476 | 645 ft | 29 kts | 29° |
| 2026-05-04 14:40 | 42.20918 | -83.36344 | 645 ft | 30 kts | 28° |
| 2026-05-04 14:40 | 42.21089 | -83.36218 | 645 ft | 27 kts | 28° |
| 2026-05-04 14:41 | 42.21248 | -83.36100 | 645 ft | 25 kts | 28° |
| 2026-05-04 14:41 | 42.21396 | -83.35992 | 645 ft | 23 kts | 28° |
| 2026-05-04 14:41 | 42.21672 | -83.35795 | 645 ft | 22 kts | 28° |
| 2026-05-04 14:42 | 42.21934 | -83.35611 | 646 ft | 21 kts | 28° |
| 2026-05-04 14:42 | 42.22057 | -83.35518 | 645 ft | 20 kts | 27° |
| 2026-05-04 14:42 | 42.22176 | -83.35433 | 647 ft | 19 kts | 27° |
| 2026-05-04 14:43 | 42.22291 | -83.35345 | 647 ft | 19 kts | 36° |
| 2026-05-04 14:43 | 42.22385 | -83.35229 | 645 ft | 18 kts | 52° |
| 2026-05-04 14:43 | 42.22457 | -83.35108 | 645 ft | 14 kts | 39° |
| 2026-05-04 14:43 | 42.22537 | -83.35047 | 645 ft | 13 kts | 29° |
| 2026-05-04 14:44 | 42.22614 | -83.34988 | 646 ft | 13 kts | 29° |
| 2026-05-04 14:44 | 42.22690 | -83.34930 | 645 ft | 12 kts | 31° |
| 2026-05-04 14:44 | 42.22735 | -83.34878 | 646 ft | 6 kts | 73° |
| 2026-05-04 14:44 | 42.22727 | -83.34826 | 646 ft | 4 kts | 108° |
| 2026-05-04 14:45 | 42.22724 | -83.34814 | 647 ft | 0 kts | 108° |